sensor_id;sensor_type;location;lat;lon;timestamp;pressure;altitude;pressure_sealevel;temperature;humidity
63700;BME280;49845;47.130;142.766;2023-08-07T00:01:01;100391.03;;;20.52;67.62
63700;BME280;49845;47.130;142.766;2023-08-07T00:03:32;100395.25;;;20.56;68.13
63700;BME280;49845;47.130;142.766;2023-08-07T00:06:04;100395.56;;;20.50;69.28
63700;BME280;49845;47.130;142.766;2023-08-07T00:08:34;100385.41;;;20.58;68.98
63700;BME280;49845;47.130;142.766;2023-08-07T00:11:07;100387.38;;;20.71;68.81
63700;BME280;49845;47.130;142.766;2023-08-07T00:13:37;100389.50;;;20.80;67.49
63700;BME280;49845;47.130;142.766;2023-08-07T00:16:09;100386.69;;;20.83;68.07
63700;BME280;49845;47.130;142.766;2023-08-07T00:18:40;100393.78;;;20.82;67.59
63700;BME280;49845;47.130;142.766;2023-08-07T00:21:11;100391.47;;;20.92;68.39
63700;BME280;49845;47.130;142.766;2023-08-07T00:23:41;100393.16;;;20.93;69.26
63700;BME280;49845;47.130;142.766;2023-08-07T00:26:12;100392.59;;;20.88;67.98
63700;BME280;49845;47.130;142.766;2023-08-07T00:28:42;100398.31;;;20.96;68.54
63700;BME280;49845;47.130;142.766;2023-08-07T00:31:14;100397.41;;;21.11;68.85
63700;BME280;49845;47.130;142.766;2023-08-07T00:33:47;100394.03;;;21.24;68.07
63700;BME280;49845;47.130;142.766;2023-08-07T00:36:20;100367.59;;;21.06;67.30
63700;BME280;49845;47.130;142.766;2023-08-07T00:38:50;100392.25;;;21.24;68.79
63700;BME280;49845;47.130;142.766;2023-08-07T00:41:21;100402.25;;;21.35;69.87
63700;BME280;49845;47.130;142.766;2023-08-07T00:43:52;100404.53;;;21.57;69.59
63700;BME280;49845;47.130;142.766;2023-08-07T00:46:24;100390.66;;;21.52;67.95
63700;BME280;49845;47.130;142.766;2023-08-07T00:48:55;100409.72;;;21.44;66.68
63700;BME280;49845;47.130;142.766;2023-08-07T00:51:26;100406.69;;;21.50;68.26
63700;BME280;49845;47.130;142.766;2023-08-07T00:53:56;100401.69;;;21.60;67.38
63700;BME280;49845;47.130;142.766;2023-08-07T00:56:28;100401.75;;;21.59;68.97
63700;BME280;49845;47.130;142.766;2023-08-07T00:58:58;100392.84;;;21.60;68.17
63700;BME280;49845;47.130;142.766;2023-08-07T01:01:31;100402.38;;;21.78;69.56
63700;BME280;49845;47.130;142.766;2023-08-07T01:04:02;100397.25;;;21.75;66.08
63700;BME280;49845;47.130;142.766;2023-08-07T01:06:32;100405.31;;;21.73;67.53
63700;BME280;49845;47.130;142.766;2023-08-07T01:09:06;100400.38;;;21.96;67.95
63700;BME280;49845;47.130;142.766;2023-08-07T01:11:43;100392.88;;;22.03;68.05
63700;BME280;49845;47.130;142.766;2023-08-07T01:14:21;100389.47;;;22.15;67.40
63700;BME280;49845;47.130;142.766;2023-08-07T01:16:59;100392.03;;;22.02;67.09
63700;BME280;49845;47.130;142.766;2023-08-07T01:19:32;100388.31;;;22.05;66.78
63700;BME280;49845;47.130;142.766;2023-08-07T01:22:09;100378.28;;;22.24;67.22
63700;BME280;49845;47.130;142.766;2023-08-07T01:24:44;100393.84;;;22.30;66.98
63700;BME280;49845;47.130;142.766;2023-08-07T01:27:31;100388.91;;;22.24;67.23
63700;BME280;49845;47.130;142.766;2023-08-07T01:30:11;100379.84;;;22.12;67.40
63700;BME280;49845;47.130;142.766;2023-08-07T01:32:49;100382.03;;;22.06;67.28
63700;BME280;49845;47.130;142.766;2023-08-07T01:35:29;100384.72;;;22.20;67.15
63700;BME280;49845;47.130;142.766;2023-08-07T01:38:02;100382.78;;;22.36;66.68
63700;BME280;49845;47.130;142.766;2023-08-07T01:40:34;100382.22;;;22.46;66.82
63700;BME280;49845;47.130;142.766;2023-08-07T01:43:05;100365.44;;;22.58;68.04
63700;BME280;49845;47.130;142.766;2023-08-07T01:45:36;100363.34;;;22.63;65.97
63700;BME280;49845;47.130;142.766;2023-08-07T01:48:06;100374.00;;;22.63;66.17
63700;BME280;49845;47.130;142.766;2023-08-07T01:50:38;100362.75;;;22.72;65.77
63700;BME280;49845;47.130;142.766;2023-08-07T01:53:10;100367.31;;;22.70;64.39
63700;BME280;49845;47.130;142.766;2023-08-07T01:55:41;100358.91;;;22.76;64.84
63700;BME280;49845;47.130;142.766;2023-08-07T01:58:11;100365.16;;;22.90;66.14
63700;BME280;49845;47.130;142.766;2023-08-07T02:00:42;100365.75;;;22.80;63.39
63700;BME280;49845;47.130;142.766;2023-08-07T02:03:12;100352.97;;;22.58;64.02
63700;BME280;49845;47.130;142.766;2023-08-07T02:05:45;100346.91;;;22.56;66.26
63700;BME280;49845;47.130;142.766;2023-08-07T02:08:17;100356.06;;;22.52;64.30
63700;BME280;49845;47.130;142.766;2023-08-07T02:10:48;100345.41;;;22.52;65.52
63700;BME280;49845;47.130;142.766;2023-08-07T02:13:18;100351.88;;;22.75;65.92
63700;BME280;49845;47.130;142.766;2023-08-07T02:15:49;100356.88;;;22.94;64.40
63700;BME280;49845;47.130;142.766;2023-08-07T02:18:20;100346.66;;;23.01;66.38
63700;BME280;49845;47.130;142.766;2023-08-07T02:20:51;100354.59;;;23.15;65.20
63700;BME280;49845;47.130;142.766;2023-08-07T02:23:23;100357.03;;;23.18;65.89
63700;BME280;49845;47.130;142.766;2023-08-07T02:25:54;100358.78;;;23.32;65.10
63700;BME280;49845;47.130;142.766;2023-08-07T02:28:24;100359.31;;;23.24;63.38
63700;BME280;49845;47.130;142.766;2023-08-07T02:30:55;100357.25;;;23.15;63.39
63700;BME280;49845;47.130;142.766;2023-08-07T02:33:26;100348.72;;;23.10;64.88
63700;BME280;49845;47.130;142.766;2023-08-07T02:35:58;100351.84;;;23.30;64.33
63700;BME280;49845;47.130;142.766;2023-08-07T02:38:31;100340.34;;;23.29;63.31
63700;BME280;49845;47.130;142.766;2023-08-07T02:41:01;100350.31;;;23.13;62.71
63700;BME280;49845;47.130;142.766;2023-08-07T02:43:32;100357.25;;;23.15;63.54
63700;BME280;49845;47.130;142.766;2023-08-07T02:46:02;100353.56;;;23.31;64.13
63700;BME280;49845;47.130;142.766;2023-08-07T02:48:33;100351.13;;;23.40;62.20
63700;BME280;49845;47.130;142.766;2023-08-07T02:51:04;100352.94;;;23.40;62.68
63700;BME280;49845;47.130;142.766;2023-08-07T02:53:37;100346.94;;;23.23;62.34
63700;BME280;49845;47.130;142.766;2023-08-07T02:56:07;100356.75;;;23.36;61.71
63700;BME280;49845;47.130;142.766;2023-08-07T02:58:39;100342.25;;;23.40;60.42
63700;BME280;49845;47.130;142.766;2023-08-07T03:01:09;100351.63;;;23.33;61.15
63700;BME280;49845;47.130;142.766;2023-08-07T03:03:40;100352.06;;;23.27;60.91
63700;BME280;49845;47.130;142.766;2023-08-07T03:06:10;100336.94;;;23.27;60.10
63700;BME280;49845;47.130;142.766;2023-08-07T03:08:42;100349.41;;;23.27;61.08
63700;BME280;49845;47.130;142.766;2023-08-07T03:11:13;100355.91;;;23.35;61.92
63700;BME280;49845;47.130;142.766;2023-08-07T03:13:44;100355.47;;;23.29;62.44
63700;BME280;49845;47.130;142.766;2023-08-07T03:16:15;100362.06;;;23.23;62.93
63700;BME280;49845;47.130;142.766;2023-08-07T03:18:45;100354.50;;;22.90;60.75
63700;BME280;49845;47.130;142.766;2023-08-07T03:21:16;100364.88;;;22.67;61.92
63700;BME280;49845;47.130;142.766;2023-08-07T03:23:48;100357.69;;;22.82;60.23
63700;BME280;49845;47.130;142.766;2023-08-07T03:26:19;100358.88;;;22.91;62.52
63700;BME280;49845;47.130;142.766;2023-08-07T03:28:49;100365.53;;;22.83;61.16
63700;BME280;49845;47.130;142.766;2023-08-07T03:31:20;100372.16;;;22.78;60.90
63700;BME280;49845;47.130;142.766;2023-08-07T03:33:51;100361.09;;;22.84;61.12
63700;BME280;49845;47.130;142.766;2023-08-07T03:36:22;100365.38;;;22.87;62.93
63700;BME280;49845;47.130;142.766;2023-08-07T03:38:54;100373.16;;;22.90;61.57
63700;BME280;49845;47.130;142.766;2023-08-07T03:41:25;100369.38;;;22.79;60.82
63700;BME280;49845;47.130;142.766;2023-08-07T03:43:56;100376.75;;;22.89;63.26
63700;BME280;49845;47.130;142.766;2023-08-07T03:46:27;100373.72;;;23.35;62.98
63700;BME280;49845;47.130;142.766;2023-08-07T03:48:57;100380.47;;;23.53;59.34
63700;BME280;49845;47.130;142.766;2023-08-07T03:51:28;100370.25;;;23.73;60.73
63700;BME280;49845;47.130;142.766;2023-08-07T03:54:02;100372.16;;;23.71;58.94
63700;BME280;49845;47.130;142.766;2023-08-07T03:56:33;100369.56;;;23.56;60.40
63700;BME280;49845;47.130;142.766;2023-08-07T03:59:05;100376.09;;;23.52;60.36
63700;BME280;49845;47.130;142.766;2023-08-07T04:01:35;100387.97;;;23.74;57.33
63700;BME280;49845;47.130;142.766;2023-08-07T04:04:06;100391.50;;;23.87;58.71
63700;BME280;49845;47.130;142.766;2023-08-07T04:06:36;100387.09;;;23.99;58.68
63700;BME280;49845;47.130;142.766;2023-08-07T04:09:08;100395.00;;;24.00;57.73
63700;BME280;49845;47.130;142.766;2023-08-07T04:11:40;100393.19;;;24.01;56.84
63700;BME280;49845;47.130;142.766;2023-08-07T04:14:11;100393.91;;;24.16;56.34
63700;BME280;49845;47.130;142.766;2023-08-07T04:16:42;100404.19;;;24.09;56.07
63700;BME280;49845;47.130;142.766;2023-08-07T04:19:12;100396.63;;;23.90;57.20
63700;BME280;49845;47.130;142.766;2023-08-07T04:21:43;100406.13;;;24.07;57.71
63700;BME280;49845;47.130;142.766;2023-08-07T04:24:16;100401.19;;;24.14;56.73
63700;BME280;49845;47.130;142.766;2023-08-07T04:26:46;100409.97;;;24.03;56.49
63700;BME280;49845;47.130;142.766;2023-08-07T04:29:17;100402.94;;;23.89;56.41
63700;BME280;49845;47.130;142.766;2023-08-07T04:31:48;100393.72;;;23.93;58.33
63700;BME280;49845;47.130;142.766;2023-08-07T04:34:18;100396.72;;;23.76;57.46
63700;BME280;49845;47.130;142.766;2023-08-07T04:36:49;100365.19;;;23.42;58.64
63700;BME280;49845;47.130;142.766;2023-08-07T04:39:24;100408.56;;;23.72;57.72
63700;BME280;49845;47.130;142.766;2023-08-07T04:41:55;100411.47;;;23.94;58.19
63700;BME280;49845;47.130;142.766;2023-08-07T04:44:26;100395.88;;;23.88;57.53
63700;BME280;49845;47.130;142.766;2023-08-07T04:46:57;100399.91;;;23.81;57.94
63700;BME280;49845;47.130;142.766;2023-08-07T04:49:27;100406.00;;;23.83;58.96
63700;BME280;49845;47.130;142.766;2023-08-07T04:51:58;100399.06;;;23.80;57.64
63700;BME280;49845;47.130;142.766;2023-08-07T04:54:48;100390.75;;;23.85;58.17
63700;BME280;49845;47.130;142.766;2023-08-07T04:57:19;100404.19;;;23.96;57.65
63700;BME280;49845;47.130;142.766;2023-08-07T04:59:50;100397.16;;;23.95;56.85
63700;BME280;49845;47.130;142.766;2023-08-07T05:02:21;100396.38;;;24.06;57.58
63700;BME280;49845;47.130;142.766;2023-08-07T05:04:52;100380.50;;;24.04;59.08
63700;BME280;49845;47.130;142.766;2023-08-07T05:07:22;100400.13;;;24.29;59.04
63700;BME280;49845;47.130;142.766;2023-08-07T05:09:54;100395.50;;;24.31;56.50
63700;BME280;49845;47.130;142.766;2023-08-07T05:12:27;100392.66;;;24.21;58.73
63700;BME280;49845;47.130;142.766;2023-08-07T05:14:58;100388.25;;;24.20;57.17
63700;BME280;49845;47.130;142.766;2023-08-07T05:17:30;100388.34;;;24.19;57.20
63700;BME280;49845;47.130;142.766;2023-08-07T05:20:01;100388.34;;;24.19;57.76
63700;BME280;49845;47.130;142.766;2023-08-07T05:22:33;100390.50;;;24.14;57.03
63700;BME280;49845;47.130;142.766;2023-08-07T05:25:06;100374.09;;;23.94;57.29
63700;BME280;49845;47.130;142.766;2023-08-07T05:27:37;100384.78;;;23.94;56.78
63700;BME280;49845;47.130;142.766;2023-08-07T05:30:09;100385.41;;;23.85;56.47
63700;BME280;49845;47.130;142.766;2023-08-07T05:32:41;100379.78;;;23.77;55.59
63700;BME280;49845;47.130;142.766;2023-08-07T05:35:11;100384.13;;;23.78;57.62
63700;BME280;49845;47.130;142.766;2023-08-07T05:37:42;100366.19;;;23.67;57.45
63700;BME280;49845;47.130;142.766;2023-08-07T05:40:14;100383.03;;;23.67;59.07
63700;BME280;49845;47.130;142.766;2023-08-07T05:42:44;100381.06;;;23.84;59.30
63700;BME280;49845;47.130;142.766;2023-08-07T05:45:15;100383.50;;;23.87;57.98
63700;BME280;49845;47.130;142.766;2023-08-07T05:47:48;100373.47;;;23.78;58.46
63700;BME280;49845;47.130;142.766;2023-08-07T05:50:19;100343.34;;;23.50;59.13
63700;BME280;49845;47.130;142.766;2023-08-07T05:52:49;100386.03;;;23.76;59.55
63700;BME280;49845;47.130;142.766;2023-08-07T05:55:22;100395.63;;;23.65;58.10
63700;BME280;49845;47.130;142.766;2023-08-07T05:57:52;100389.53;;;23.63;59.43
63700;BME280;49845;47.130;142.766;2023-08-07T06:00:23;100394.47;;;23.69;59.11
63700;BME280;49845;47.130;142.766;2023-08-07T06:02:53;100376.34;;;23.75;58.33
63700;BME280;49845;47.130;142.766;2023-08-07T06:05:24;100372.16;;;23.71;59.12
63700;BME280;49845;47.130;142.766;2023-08-07T06:07:54;100336.25;;;23.23;59.62
63700;BME280;49845;47.130;142.766;2023-08-07T06:10:27;100395.00;;;23.62;60.90
63700;BME280;49845;47.130;142.766;2023-08-07T06:12:57;100391.78;;;23.57;59.12
63700;BME280;49845;47.130;142.766;2023-08-07T06:15:31;100393.03;;;23.51;59.34
63700;BME280;49845;47.130;142.766;2023-08-07T06:18:02;100398.19;;;23.54;60.75
63700;BME280;49845;47.130;142.766;2023-08-07T06:20:34;100402.47;;;23.57;58.61
63700;BME280;49845;47.130;142.766;2023-08-07T06:23:05;100384.31;;;23.49;60.70
63700;BME280;49845;47.130;142.766;2023-08-07T06:25:38;100391.56;;;23.47;58.82
63700;BME280;49845;47.130;142.766;2023-08-07T06:28:10;100405.22;;;23.55;58.76
63700;BME280;49845;47.130;142.766;2023-08-07T06:30:41;100415.63;;;23.73;58.70
63700;BME280;49845;47.130;142.766;2023-08-07T06:33:11;100408.16;;;23.78;56.94
63700;BME280;49845;47.130;142.766;2023-08-07T06:35:42;100410.19;;;23.74;56.95
63700;BME280;49845;47.130;142.766;2023-08-07T06:38:12;100409.50;;;23.71;54.35
63700;BME280;49845;47.130;142.766;2023-08-07T06:40:44;100409.72;;;23.67;54.56
63700;BME280;49845;47.130;142.766;2023-08-07T06:43:15;100410.28;;;23.73;55.28
63700;BME280;49845;47.130;142.766;2023-08-07T06:45:48;100416.25;;;23.76;55.13
63700;BME280;49845;47.130;142.766;2023-08-07T06:48:19;100402.06;;;23.76;54.26
63700;BME280;49845;47.130;142.766;2023-08-07T06:50:51;100422.78;;;23.85;53.51
63700;BME280;49845;47.130;142.766;2023-08-07T06:53:21;100424.81;;;23.94;53.55
63700;BME280;49845;47.130;142.766;2023-08-07T06:55:53;100371.28;;;23.57;53.37
63700;BME280;49845;47.130;142.766;2023-08-07T06:58:24;100430.03;;;23.83;54.13
63700;BME280;49845;47.130;142.766;2023-08-07T07:00:55;100427.63;;;23.65;52.32
63700;BME280;49845;47.130;142.766;2023-08-07T07:03:25;100435.09;;;23.60;52.83
63700;BME280;49845;47.130;142.766;2023-08-07T07:05:56;100426.56;;;23.55;53.29
63700;BME280;49845;47.130;142.766;2023-08-07T07:08:27;100446.84;;;23.71;54.16
63700;BME280;49845;47.130;142.766;2023-08-07T07:10:59;100447.13;;;23.53;53.68
63700;BME280;49845;47.130;142.766;2023-08-07T07:13:29;100459.81;;;23.37;55.22
63700;BME280;49845;47.130;142.766;2023-08-07T07:16:00;100460.75;;;23.36;57.96
63700;BME280;49845;47.130;142.766;2023-08-07T07:18:30;100469.88;;;23.19;58.90
63700;BME280;49845;47.130;142.766;2023-08-07T07:21:01;100440.34;;;22.80;59.87
63700;BME280;49845;47.130;142.766;2023-08-07T07:23:32;100471.75;;;22.75;60.91
63700;BME280;49845;47.130;142.766;2023-08-07T07:26:04;100475.78;;;22.54;61.48
63700;BME280;49845;47.130;142.766;2023-08-07T07:28:35;100477.69;;;22.37;62.23
63700;BME280;49845;47.130;142.766;2023-08-07T07:31:06;100480.38;;;22.37;63.35
63700;BME280;49845;47.130;142.766;2023-08-07T07:33:39;100482.25;;;22.35;63.21
63700;BME280;49845;47.130;142.766;2023-08-07T07:36:15;100490.06;;;22.24;63.69
63700;BME280;49845;47.130;142.766;2023-08-07T07:38:46;100487.78;;;22.32;63.26
63700;BME280;49845;47.130;142.766;2023-08-07T07:41:18;100484.63;;;22.40;63.60
63700;BME280;49845;47.130;142.766;2023-08-07T07:43:49;100487.94;;;22.58;63.98
63700;BME280;49845;47.130;142.766;2023-08-07T07:46:22;100490.03;;;22.81;63.84
63700;BME280;49845;47.130;142.766;2023-08-07T07:48:52;100393.66;;;22.33;61.92
63700;BME280;49845;47.130;142.766;2023-08-07T07:51:24;100468.88;;;22.78;62.64
63700;BME280;49845;47.130;142.766;2023-08-07T07:53:55;100493.41;;;23.12;62.58
63700;BME280;49845;47.130;142.766;2023-08-07T07:56:43;100507.66;;;23.11;62.29
63700;BME280;49845;47.130;142.766;2023-08-07T07:59:14;100504.06;;;23.12;62.06
63700;BME280;49845;47.130;142.766;2023-08-07T08:01:44;100514.19;;;23.07;62.70
63700;BME280;49845;47.130;142.766;2023-08-07T08:04:15;100513.50;;;23.03;62.77
63700;BME280;49845;47.130;142.766;2023-08-07T08:06:46;100498.69;;;22.99;62.60
63700;BME280;49845;47.130;142.766;2023-08-07T08:09:17;100513.97;;;22.96;62.21
63700;BME280;49845;47.130;142.766;2023-08-07T08:11:49;100515.22;;;22.90;62.63
63700;BME280;49845;47.130;142.766;2023-08-07T08:14:20;100512.84;;;22.86;62.63
63700;BME280;49845;47.130;142.766;2023-08-07T08:16:50;100516.84;;;22.78;62.75
63700;BME280;49845;47.130;142.766;2023-08-07T08:19:21;100511.91;;;22.72;62.55
63700;BME280;49845;47.130;142.766;2023-08-07T08:21:53;100509.44;;;22.69;62.96
63700;BME280;49845;47.130;142.766;2023-08-07T08:24:24;100509.25;;;22.58;62.20
63700;BME280;49845;47.130;142.766;2023-08-07T08:26:57;100515.16;;;22.49;62.75
63700;BME280;49845;47.130;142.766;2023-08-07T08:29:28;100521.53;;;22.46;62.88
63700;BME280;49845;47.130;142.766;2023-08-07T08:31:58;100516.31;;;22.45;63.18
63700;BME280;49845;47.130;142.766;2023-08-07T08:34:29;100518.41;;;22.39;62.96
63700;BME280;49845;47.130;142.766;2023-08-07T08:36:59;100516.09;;;22.33;63.24
63700;BME280;49845;47.130;142.766;2023-08-07T08:39:30;100522.00;;;22.24;63.20
63700;BME280;49845;47.130;142.766;2023-08-07T08:42:02;100518.91;;;22.16;62.73
63700;BME280;49845;47.130;142.766;2023-08-07T08:44:36;100528.03;;;22.12;63.91
63700;BME280;49845;47.130;142.766;2023-08-07T08:47:09;100523.38;;;22.15;63.95
63700;BME280;49845;47.130;142.766;2023-08-07T08:49:45;100531.44;;;22.14;63.98
63700;BME280;49845;47.130;142.766;2023-08-07T08:52:16;100519.63;;;22.04;64.42
63700;BME280;49845;47.130;142.766;2023-08-07T08:54:47;100517.44;;;21.96;64.31
63700;BME280;49845;47.130;142.766;2023-08-07T08:57:20;100533.06;;;22.02;65.33
63700;BME280;49845;47.130;142.766;2023-08-07T08:59:51;100532.75;;;21.92;66.19
63700;BME280;49845;47.130;142.766;2023-08-07T09:02:22;100542.84;;;22.02;66.10
63700;BME280;49845;47.130;142.766;2023-08-07T09:07:46;100545.66;;;21.84;66.07
63700;BME280;49845;47.130;142.766;2023-08-07T09:10:21;100557.00;;;21.72;65.97
63700;BME280;49845;47.130;142.766;2023-08-07T09:13:00;100548.78;;;21.61;66.36
63700;BME280;49845;47.130;142.766;2023-08-07T09:15:43;100559.78;;;21.54;66.02
63700;BME280;49845;47.130;142.766;2023-08-07T09:18:22;100560.47;;;21.42;66.50
63700;BME280;49845;47.130;142.766;2023-08-07T09:21:00;100564.63;;;21.30;67.21
63700;BME280;49845;47.130;142.766;2023-08-07T09:24:09;100564.53;;;21.16;67.35
63700;BME280;49845;47.130;142.766;2023-08-07T09:26:57;100563.88;;;20.97;67.68
63700;BME280;49845;47.130;142.766;2023-08-07T09:29:58;100558.88;;;20.75;68.14
63700;BME280;49845;47.130;142.766;2023-08-07T09:32:32;100565.69;;;20.63;69.00
63700;BME280;49845;47.130;142.766;2023-08-07T09:35:04;100564.53;;;20.34;70.46
63700;BME280;49845;47.130;142.766;2023-08-07T09:37:37;100573.13;;;20.04;71.10
63700;BME280;49845;47.130;142.766;2023-08-07T09:40:11;100573.91;;;19.89;71.71
63700;BME280;49845;47.130;142.766;2023-08-07T09:42:44;100575.00;;;19.67;72.44
63700;BME280;49845;47.130;142.766;2023-08-07T09:45:23;100581.94;;;19.51;72.63
63700;BME280;49845;47.130;142.766;2023-08-07T09:48:00;100579.59;;;19.26;73.67
63700;BME280;49845;47.130;142.766;2023-08-07T09:50:33;100586.19;;;19.17;74.02
63700;BME280;49845;47.130;142.766;2023-08-07T09:53:05;100588.63;;;19.03;74.43
63700;BME280;49845;47.130;142.766;2023-08-07T09:55:37;100597.94;;;18.92;74.93
63700;BME280;49845;47.130;142.766;2023-08-07T09:58:12;100600.31;;;18.78;75.81
63700;BME280;49845;47.130;142.766;2023-08-07T10:00:49;100607.00;;;18.66;76.56
63700;BME280;49845;47.130;142.766;2023-08-07T10:03:22;100608.47;;;18.53;77.41
63700;BME280;49845;47.130;142.766;2023-08-07T10:05:55;100609.19;;;18.36;78.17
63700;BME280;49845;47.130;142.766;2023-08-07T10:08:26;100619.78;;;18.36;78.75
63700;BME280;49845;47.130;142.766;2023-08-07T10:10:59;100623.75;;;18.26;79.68
63700;BME280;49845;47.130;142.766;2023-08-07T10:13:33;100631.00;;;18.21;80.33
63700;BME280;49845;47.130;142.766;2023-08-07T10:16:11;100639.41;;;18.10;80.72
63700;BME280;49845;47.130;142.766;2023-08-07T10:18:44;100642.59;;;17.96;81.60
63700;BME280;49845;47.130;142.766;2023-08-07T10:21:17;100647.19;;;17.93;82.42
63700;BME280;49845;47.130;142.766;2023-08-07T10:23:51;100651.84;;;17.86;82.89
63700;BME280;49845;47.130;142.766;2023-08-07T10:26:24;100661.75;;;17.79;83.55
63700;BME280;49845;47.130;142.766;2023-08-07T10:29:00;100662.00;;;17.73;84.09
63700;BME280;49845;47.130;142.766;2023-08-07T10:31:35;100634.47;;;17.35;84.87
63700;BME280;49845;47.130;142.766;2023-08-07T10:34:10;100676.00;;;17.53;85.57
63700;BME280;49845;47.130;142.766;2023-08-07T10:36:44;100662.47;;;17.39;86.41
63700;BME280;49845;47.130;142.766;2023-08-07T10:39:19;100680.81;;;17.42;87.03
63700;BME280;49845;47.130;142.766;2023-08-07T10:41:54;100690.72;;;17.37;87.39
63700;BME280;49845;47.130;142.766;2023-08-07T10:44:31;100684.06;;;17.27;87.96
63700;BME280;49845;47.130;142.766;2023-08-07T10:47:06;100694.63;;;17.27;88.52
63700;BME280;49845;47.130;142.766;2023-08-07T10:49:38;100690.38;;;17.22;89.08
63700;BME280;49845;47.130;142.766;2023-08-07T10:52:11;100694.25;;;17.12;89.89
63700;BME280;49845;47.130;142.766;2023-08-07T10:54:46;100684.06;;;17.03;90.48
63700;BME280;49845;47.130;142.766;2023-08-07T10:57:20;100692.81;;;17.03;91.01
63700;BME280;49845;47.130;142.766;2023-08-07T11:00:02;100693.06;;;16.97;91.23
63700;BME280;49845;47.130;142.766;2023-08-07T11:02:42;100680.22;;;16.87;91.51
63700;BME280;49845;47.130;142.766;2023-08-07T11:05:14;100706.41;;;16.93;91.96
63700;BME280;49845;47.130;142.766;2023-08-07T11:07:47;100694.22;;;16.89;92.55
63700;BME280;49845;47.130;142.766;2023-08-07T11:10:19;100683.91;;;16.83;92.62
63700;BME280;49845;47.130;142.766;2023-08-07T11:12:51;100672.13;;;16.66;92.93
63700;BME280;49845;47.130;142.766;2023-08-07T11:15:23;100689.34;;;16.76;93.04
63700;BME280;49845;47.130;142.766;2023-08-07T11:17:57;100690.63;;;16.65;92.75
63700;BME280;49845;47.130;142.766;2023-08-07T11:20:29;100696.50;;;16.48;92.83
63700;BME280;49845;47.130;142.766;2023-08-07T11:23:01;100699.81;;;16.28;93.29
63700;BME280;49845;47.130;142.766;2023-08-07T11:25:32;100702.28;;;16.06;94.04
63700;BME280;49845;47.130;142.766;2023-08-07T11:28:07;100702.06;;;15.85;94.99
63700;BME280;49845;47.130;142.766;2023-08-07T11:30:39;100698.06;;;15.72;96.36
63700;BME280;49845;47.130;142.766;2023-08-07T11:33:29;100682.16;;;15.45;97.52
63700;BME280;49845;47.130;142.766;2023-08-07T11:36:11;100695.03;;;15.54;98.65
63700;BME280;49845;47.130;142.766;2023-08-07T11:38:47;100702.22;;;15.49;99.28
63700;BME280;49845;47.130;142.766;2023-08-07T11:41:20;100697.91;;;15.47;99.49
63700;BME280;49845;47.130;142.766;2023-08-07T11:43:53;100695.59;;;15.36;99.21
63700;BME280;49845;47.130;142.766;2023-08-07T11:46:27;100703.13;;;15.19;99.73
63700;BME280;49845;47.130;142.766;2023-08-07T11:49:03;100680.94;;;14.96;100.00
63700;BME280;49845;47.130;142.766;2023-08-07T11:51:37;100700.91;;;15.03;100.00
63700;BME280;49845;47.130;142.766;2023-08-07T11:54:14;100694.75;;;15.04;100.00
63700;BME280;49845;47.130;142.766;2023-08-07T11:56:58;100698.28;;;15.03;100.00
63700;BME280;49845;47.130;142.766;2023-08-07T11:59:37;100693.19;;;14.97;100.00
63700;BME280;49845;47.130;142.766;2023-08-07T12:02:13;100688.84;;;14.96;100.00
63700;BME280;49845;47.130;142.766;2023-08-07T12:04:48;100698.44;;;14.97;100.00
63700;BME280;49845;47.130;142.766;2023-08-07T12:07:20;100696.72;;;14.96;100.00
63700;BME280;49845;47.130;142.766;2023-08-07T12:10:03;100691.56;;;14.93;100.00
63700;BME280;49845;47.130;142.766;2023-08-07T12:12:47;100683.00;;;14.85;100.00
63700;BME280;49845;47.130;142.766;2023-08-07T12:15:28;100698.78;;;14.85;100.00
63700;BME280;49845;47.130;142.766;2023-08-07T12:18:03;100666.16;;;14.59;100.00
63700;BME280;49845;47.130;142.766;2023-08-07T12:20:38;100706.09;;;14.74;100.00
63700;BME280;49845;47.130;142.766;2023-08-07T12:23:14;100711.44;;;14.71;100.00
63700;BME280;49845;47.130;142.766;2023-08-07T12:25:47;100709.88;;;14.63;100.00
63700;BME280;49845;47.130;142.766;2023-08-07T12:28:22;100711.84;;;14.55;100.00
63700;BME280;49845;47.130;142.766;2023-08-07T12:30:54;100715.41;;;14.51;100.00
63700;BME280;49845;47.130;142.766;2023-08-07T12:33:28;100711.19;;;14.45;100.00
63700;BME280;49845;47.130;142.766;2023-08-07T12:36:02;100718.34;;;14.39;100.00
63700;BME280;49845;47.130;142.766;2023-08-07T12:38:47;100723.00;;;14.28;100.00
63700;BME280;49845;47.130;142.766;2023-08-07T12:41:20;100722.19;;;14.26;100.00
63700;BME280;49845;47.130;142.766;2023-08-07T12:43:54;100734.50;;;14.23;100.00
63700;BME280;49845;47.130;142.766;2023-08-07T12:46:29;100733.75;;;14.18;100.00
63700;BME280;49845;47.130;142.766;2023-08-07T12:49:04;100739.09;;;14.15;100.00
63700;BME280;49845;47.130;142.766;2023-08-07T12:51:41;100735.63;;;14.13;100.00
63700;BME280;49845;47.130;142.766;2023-08-07T12:54:15;100728.81;;;14.05;100.00
63700;BME280;49845;47.130;142.766;2023-08-07T12:56:49;100746.25;;;14.07;100.00
63700;BME280;49845;47.130;142.766;2023-08-07T12:59:21;100744.56;;;14.06;100.00